Time;durP1;ratioP1;P1;durP2;ratioP2;P2;SDS_P1;SDS_P2;PMS_P1;PMS_P2;Temp;Humidity;BMP_temperature;BMP_pressure;BME280_temperature;BME280_humidity;BME280_pressure;Samples;Min_cycle;Max_cycle;Signal;HPM_P1;HPM_P2
2021/08/16 00:01:09;;;;;;;7.97;4.40;;;;;;;18.07;73.51;99937.25;5001570;28;20456;-79
2021/08/16 00:03:34;;;;;;;6.95;4.28;;;;;;;18.06;72.99;99940.00;5000398;28;20055;-79
2021/08/16 00:06:00;;;;;;;7.75;4.65;;;;;;;18.05;72.83;99938.25;4999288;28;20105;-79
2021/08/16 00:08:25;;;;;;;6.57;4.25;;;;;;;18.06;73.09;99937.34;5001002;28;20042;-79
2021/08/16 00:10:51;;;;;;;9.70;4.95;;;;;;;18.04;73.06;99944.53;4999360;28;20066;-79
2021/08/16 00:13:16;;;;;;;6.90;4.53;;;;;;;17.95;73.48;99944.03;4999174;28;20043;-79
2021/08/16 00:15:41;;;;;;;7.40;3.92;;;;;;;17.92;73.54;99937.94;4961690;28;20047;-79
2021/08/16 00:18:07;;;;;;;9.80;4.65;;;;;;;17.76;74.64;99932.41;4998057;28;20043;-79
2021/08/16 00:20:32;;;;;;;7.78;5.32;;;;;;;17.67;75.00;99935.50;5001128;28;20038;-78
2021/08/16 00:22:58;;;;;;;8.27;5.13;;;;;;;17.55;75.09;99923.56;5003634;28;20037;-78
2021/08/16 00:25:24;;;;;;;8.27;4.88;;;;;;;17.60;74.88;99918.03;4994054;28;20035;-78
2021/08/16 00:27:49;;;;;;;6.45;4.57;;;;;;;17.62;74.09;99914.34;5003134;28;20054;-79
2021/08/16 00:30:15;;;;;;;7.43;4.53;;;;;;;17.60;74.38;99926.91;4973989;28;20049;-78
2021/08/16 00:32:40;;;;;;;7.13;5.00;;;;;;;17.43;74.95;99918.78;5003627;28;20046;-78
2021/08/16 00:35:06;;;;;;;8.38;4.80;;;;;;;17.39;75.15;99926.03;4996128;28;20041;-78
2021/08/16 00:37:31;;;;;;;7.32;5.07;;;;;;;17.28;75.68;99917.66;4979531;28;20038;-78
2021/08/16 00:39:56;;;;;;;10.07;4.88;;;;;;;17.30;75.70;99916.66;4984916;28;20065;-78
2021/08/16 00:42:22;;;;;;;9.40;4.63;;;;;;;17.31;75.61;99917.53;4999790;28;20066;-78
2021/08/16 00:44:47;;;;;;;7.28;4.45;;;;;;;17.27;76.03;99923.94;5000067;28;20401;-78
2021/08/16 00:47:15;;;;;;;7.32;4.45;;;;;;;17.26;75.76;99924.84;5001669;28;20057;-78
2021/08/16 00:49:40;;;;;;;7.75;5.22;;;;;;;17.24;76.11;99919.59;4984245;28;20050;-79
2021/08/16 00:52:06;;;;;;;7.13;4.75;;;;;;;17.27;76.00;99914.13;4999325;28;20047;-78
2021/08/16 00:54:32;;;;;;;7.88;4.68;;;;;;;17.29;76.06;99906.94;4963241;28;20128;-78
2021/08/16 00:57:01;;;;;;;7.45;5.15;;;;;;;17.26;75.42;99904.38;4999164;28;20065;-78
2021/08/16 00:59:27;;;;;;;6.03;4.50;;;;;;;17.23;75.17;99887.66;4999151;28;20034;-78
2021/08/16 01:01:52;;;;;;;10.18;4.82;;;;;;;17.25;75.84;99891.13;4981476;28;20049;-78
2021/08/16 01:04:18;;;;;;;6.90;4.50;;;;;;;17.18;76.00;99892.31;5000713;28;20034;-79
2021/08/16 01:06:43;;;;;;;7.20;4.70;;;;;;;17.17;76.37;99895.94;4999361;28;20042;-78
2021/08/16 01:09:08;;;;;;;10.23;5.53;;;;;;;17.09;76.79;99889.13;4988538;28;20070;-78
2021/08/16 01:11:34;;;;;;;9.90;5.25;;;;;;;17.07;76.80;99877.66;4995118;28;20037;-78
2021/08/16 01:13:59;;;;;;;10.38;5.43;;;;;;;17.14;76.90;99877.41;4994264;28;20040;-78
2021/08/16 01:16:24;;;;;;;7.85;4.70;;;;;;;17.11;76.98;99869.50;4992840;28;20516;-78
2021/08/16 01:18:50;;;;;;;8.00;4.65;;;;;;;16.99;76.83;99863.78;4977082;28;20508;-79
2021/08/16 01:21:17;;;;;;;7.10;4.72;;;;;;;16.97;76.90;99870.97;4992640;28;20540;-79
2021/08/16 01:23:44;;;;;;;10.00;5.55;;;;;;;16.96;77.05;99873.72;4975647;28;20038;-79
2021/08/16 01:26:10;;;;;;;10.02;5.75;;;;;;;16.90;76.78;99872.19;4995355;28;20038;-78
2021/08/16 01:28:35;;;;;;;10.25;5.65;;;;;;;16.83;77.43;99860.06;4995145;28;20121;-78
2021/08/16 01:31:04;;;;;;;8.15;4.75;;;;;;;16.82;77.21;99855.63;4992557;28;20110;-79
2021/08/16 01:33:30;;;;;;;8.18;4.90;;;;;;;16.81;77.59;99859.25;4979512;28;20044;-79
2021/08/16 01:35:55;;;;;;;9.52;5.40;;;;;;;16.81;77.52;99860.13;4996379;28;20045;-79
2021/08/16 01:38:26;;;;;;;10.85;5.25;;;;;;;16.80;77.67;99857.53;4994298;28;20030;-78
2021/08/16 01:40:51;;;;;;;9.05;5.32;;;;;;;16.76;78.08;99848.75;4994722;28;20061;-79
2021/08/16 01:43:16;;;;;;;7.07;4.75;;;;;;;16.75;77.66;99849.69;4954529;29;20035;-78
2021/08/16 01:45:42;;;;;;;9.45;4.90;;;;;;;16.69;77.91;99854.41;4976170;28;20397;-79
2021/08/16 01:48:07;;;;;;;9.38;5.65;;;;;;;16.63;78.37;99852.88;4991284;28;20158;-78
2021/08/16 01:50:33;;;;;;;10.32;5.63;;;;;;;16.61;78.78;99855.59;4991641;28;20089;-78
2021/08/16 01:52:58;;;;;;;13.20;5.97;;;;;;;16.58;78.88;99863.72;4995148;28;20042;-78
2021/08/16 01:55:23;;;;;;;9.35;6.60;;;;;;;16.52;79.59;99855.97;4997237;28;20047;-78
2021/08/16 01:57:49;;;;;;;9.30;5.53;;;;;;;16.53;78.90;99852.41;4998758;28;20037;-78
2021/08/16 02:00:15;;;;;;;7.20;5.25;;;;;;;16.52;79.23;99847.97;4981512;28;20045;-79
2021/08/16 02:02:40;;;;;;;7.90;5.05;;;;;;;16.51;78.80;99840.94;4995574;28;20045;-79
2021/08/16 02:05:06;;;;;;;8.65;5.38;;;;;;;16.48;78.68;99840.19;4979796;28;20145;-79
2021/08/16 02:07:32;;;;;;;10.68;6.28;;;;;;;16.45;78.91;99838.50;4975077;28;20031;-79
2021/08/16 02:09:57;;;;;;;6.68;4.80;;;;;;;16.39;78.59;99836.09;4998820;28;20054;-79
2021/08/16 02:12:22;;;;;;;7.78;4.80;;;;;;;16.35;78.89;99835.38;4965662;28;20038;-79
2021/08/16 02:14:47;;;;;;;7.97;5.05;;;;;;;16.33;78.86;99834.56;4996569;28;20057;-78
2021/08/16 02:17:13;;;;;;;8.40;4.82;;;;;;;16.32;78.53;99830.19;4999765;28;20037;-79
2021/08/16 02:19:38;;;;;;;9.60;6.13;;;;;;;16.33;78.95;99820.41;5002881;28;20089;-79
2021/08/16 02:22:04;;;;;;;6.90;5.00;;;;;;;16.32;79.02;99818.63;4997433;28;20069;-79
2021/08/16 02:24:29;;;;;;;7.28;4.20;;;;;;;16.29;78.75;99829.41;4995738;28;20620;-79
2021/08/16 02:26:54;;;;;;;8.15;5.47;;;;;;;16.21;78.80;99819.94;5002084;28;20106;-79
2021/08/16 02:29:20;;;;;;;7.57;4.60;;;;;;;16.15;79.34;99828.19;4980499;28;20062;-79
2021/08/16 02:31:45;;;;;;;9.13;6.60;;;;;;;16.14;79.18;99823.81;4998692;28;20054;-79
2021/08/16 02:34:10;;;;;;;9.10;5.50;;;;;;;16.11;79.64;99818.63;4991484;28;20094;-79
2021/08/16 02:36:35;;;;;;;8.23;4.60;;;;;;;16.04;79.76;99817.13;4992144;28;20046;-79
2021/08/16 02:39:01;;;;;;;13.18;5.65;;;;;;;15.96;80.02;99812.09;4970637;28;20043;-79
2021/08/16 02:41:27;;;;;;;9.95;6.90;;;;;;;15.96;80.42;99811.22;4981432;28;20050;-78
2021/08/16 02:43:52;;;;;;;8.80;5.95;;;;;;;15.97;80.55;99802.31;4991291;28;20035;-78
2021/08/16 02:46:19;;;;;;;9.43;5.95;;;;;;;16.00;80.17;99808.38;4990930;28;20034;-79
2021/08/16 02:48:45;;;;;;;8.13;5.18;;;;;;;16.02;80.17;99818.97;4956867;28;20070;-78
2021/08/16 02:51:11;;;;;;;8.52;5.32;;;;;;;15.99;79.75;99811.09;4996599;28;20047;-79
2021/08/16 02:53:36;;;;;;;12.75;6.30;;;;;;;15.95;79.49;99812.13;4978279;28;20045;-79
2021/08/16 02:56:01;;;;;;;11.27;6.40;;;;;;;15.95;79.70;99806.81;4997397;28;20038;-79
2021/08/16 02:58:27;;;;;;;8.80;6.45;;;;;;;15.99;79.84;99814.63;4996613;28;20035;-79
2021/08/16 03:00:52;;;;;;;10.32;6.78;;;;;;;16.01;80.09;99814.59;4995242;28;20038;-79
2021/08/16 03:03:17;;;;;;;9.48;7.22;;;;;;;16.00;79.99;99819.00;4996481;28;20049;-79
2021/08/16 03:05:43;;;;;;;11.00;5.80;;;;;;;15.96;80.09;99821.88;4994356;28;20046;-78
2021/08/16 03:08:08;;;;;;;9.15;5.63;;;;;;;15.92;80.13;99814.94;4991665;28;20494;-79
2021/08/16 03:10:35;;;;;;;9.73;6.13;;;;;;;15.88;80.66;99818.66;4973822;28;20063;-78
2021/08/16 03:13:00;;;;;;;10.00;6.60;;;;;;;15.82;80.57;99813.56;4996344;28;20039;-78
2021/08/16 03:15:26;;;;;;;9.50;5.57;;;;;;;15.86;80.35;99810.72;5003462;28;20057;-79
2021/08/16 03:17:52;;;;;;;8.77;6.53;;;;;;;15.83;80.54;99813.50;5002112;28;20058;-78
2021/08/16 03:20:18;;;;;;;10.30;5.88;;;;;;;15.81;80.34;99815.34;5002178;28;20042;-77
2021/08/16 03:22:43;;;;;;;8.70;5.47;;;;;;;15.76;80.20;99815.53;4983990;28;20050;-79
2021/08/16 03:25:10;;;;;;;8.13;5.30;;;;;;;15.76;80.34;99810.22;4964062;28;20070;-78
2021/08/16 03:27:35;;;;;;;8.00;5.20;;;;;;;15.74;80.18;99805.88;4984524;28;20054;-79
2021/08/16 03:30:02;;;;;;;10.07;4.95;;;;;;;15.67;80.75;99809.69;5003456;28;20027;-78
2021/08/16 03:32:28;;;;;;;8.85;6.13;;;;;;;15.65;80.81;99812.38;4984091;28;20050;-78
2021/08/16 03:34:53;;;;;;;7.40;5.32;;;;;;;15.68;80.87;99806.94;4970032;28;20046;-78
2021/08/16 03:37:19;;;;;;;11.32;5.57;;;;;;;15.68;80.83;99806.94;5000362;28;20031;-78
2021/08/16 03:39:44;;;;;;;14.82;7.20;;;;;;;15.73;80.55;99810.34;4980884;28;20043;-78
2021/08/16 03:42:09;;;;;;;10.43;6.05;;;;;;;15.76;80.45;99802.22;4962659;28;20046;-78
2021/08/16 03:44:35;;;;;;;11.98;5.60;;;;;;;15.73;80.43;99802.34;5001871;28;20085;-79
2021/08/16 03:47:01;;;;;;;6.45;4.68;;;;;;;15.66;80.57;99803.47;4987981;28;20042;-78
2021/08/16 03:49:26;;;;;;;8.25;5.85;;;;;;;15.64;81.23;99799.13;5002104;28;20170;-78
2021/08/16 03:51:51;;;;;;;8.77;5.70;;;;;;;15.71;81.20;99792.69;4993937;28;20081;-78
2021/08/16 03:54:17;;;;;;;7.03;4.95;;;;;;;15.84;81.07;99785.97;4976564;28;20038;-78
2021/08/16 03:56:42;;;;;;;9.90;6.03;;;;;;;15.98;80.43;99798.72;4994996;28;20042;-78
2021/08/16 03:59:07;;;;;;;9.80;5.10;;;;;;;16.07;80.35;99794.84;4997011;28;20098;-78
2021/08/16 04:01:32;;;;;;;10.35;5.40;;;;;;;16.15;80.37;99790.91;4996958;28;20057;-78
2021/08/16 04:04:01;;;;;;;11.85;7.30;;;;;;;16.21;79.56;99790.66;4996902;28;20041;-78
2021/08/16 04:06:26;;;;;;;12.07;7.90;;;;;;;16.22;78.79;99791.53;4981850;28;20468;-78
2021/08/16 04:08:51;;;;;;;8.98;6.60;;;;;;;16.17;78.47;99786.41;4996838;28;20042;-78
2021/08/16 04:11:17;;;;;;;7.80;5.90;;;;;;;16.15;78.53;99795.38;4990829;28;20057;-77
2021/08/16 04:13:42;;;;;;;7.60;5.40;;;;;;;16.15;78.30;99782.94;4992706;28;20057;-77
2021/08/16 04:16:07;;;;;;;9.05;5.18;;;;;;;16.19;78.16;99783.66;4991735;28;20042;-75
2021/08/16 04:18:33;;;;;;;10.50;5.60;;;;;;;16.17;78.33;99782.88;4994134;28;20038;-78
2021/08/16 04:20:58;;;;;;;13.20;6.95;;;;;;;16.19;78.20;99781.00;4996689;28;20117;-77
2021/08/16 04:23:24;;;;;;;11.23;6.55;;;;;;;16.21;77.86;99774.69;4976972;28;20038;-77
2021/08/16 04:25:50;;;;;;;10.45;5.20;;;;;;;16.23;77.75;99774.63;4976714;28;20065;-78
2021/08/16 04:28:15;;;;;;;8.75;5.88;;;;;;;16.28;77.41;99779.78;4980345;28;20034;-77
2021/08/16 04:30:40;;;;;;;8.20;5.25;;;;;;;16.25;76.85;99779.91;4953538;28;20077;-78
2021/08/16 04:33:06;;;;;;;9.90;5.40;;;;;;;16.18;77.01;99777.47;4983285;28;20080;-78
2021/08/16 04:35:32;;;;;;;11.35;5.47;;;;;;;16.17;77.11;99775.75;4995940;28;20074;-78
2021/08/16 04:37:57;;;;;;;10.32;5.88;;;;;;;16.17;76.97;99778.41;4992120;28;20618;-77
2021/08/16 04:40:22;;;;;;;9.02;5.00;;;;;;;16.19;77.08;99773.00;4997185;28;20121;-78
2021/08/16 04:42:48;;;;;;;7.15;4.72;;;;;;;16.18;77.64;99774.81;4975351;28;20062;-77
2021/08/16 04:45:14;;;;;;;7.68;4.95;;;;;;;16.26;77.14;99778.97;4994483;28;20026;-77
2021/08/16 04:47:42;;;;;;;9.45;5.20;;;;;;;16.33;77.61;99773.31;4995708;28;20108;-78
2021/08/16 04:50:08;;;;;;;10.57;4.80;;;;;;;16.40;77.24;99764.16;4967755;28;20039;-78
2021/08/16 04:52:33;;;;;;;8.43;5.45;;;;;;;16.48;77.17;99771.81;4988485;28;20041;-78
2021/08/16 04:54:59;;;;;;;10.90;5.90;;;;;;;16.53;77.52;99763.59;4972930;28;20061;-78
2021/08/16 04:57:29;;;;;;;8.50;4.63;;;;;;;16.61;77.39;99765.03;5000495;28;20031;-78
2021/08/16 04:59:54;;;;;;;10.45;5.03;;;;;;;16.71;77.66;99768.13;4990417;28;20027;-78
2021/08/16 05:02:19;;;;;;;8.45;5.80;;;;;;;16.82;77.05;99770.38;4991306;28;20031;-78
2021/08/16 05:04:46;;;;;;;7.60;5.10;;;;;;;16.98;76.87;99766.13;4972203;28;20121;-78
2021/08/16 05:07:12;;;;;;;7.38;5.13;;;;;;;17.14;76.51;99765.44;4990939;28;20043;-78
2021/08/16 05:09:37;;;;;;;11.02;6.68;;;;;;;17.29;75.79;99767.38;4986461;28;20030;-78
2021/08/16 05:12:03;;;;;;;7.82;5.22;;;;;;;17.40;75.75;99757.09;4993730;28;20038;-78
2021/08/16 05:14:28;;;;;;;10.18;7.28;;;;;;;17.52;75.38;99759.16;4989798;28;20031;-78
2021/08/16 05:16:53;;;;;;;9.80;6.38;;;;;;;17.65;75.35;99766.59;5005549;28;20093;-78
2021/08/16 05:19:19;;;;;;;10.43;7.03;;;;;;;17.81;75.03;99756.94;4999550;28;20034;-78
2021/08/16 05:21:44;;;;;;;9.25;5.45;;;;;;;17.98;74.07;99757.94;4996258;28;20107;-78
2021/08/16 05:24:09;;;;;;;10.98;5.78;;;;;;;18.09;73.80;99755.59;4997793;28;20042;-78
2021/08/16 05:26:35;;;;;;;12.13;5.72;;;;;;;18.25;73.84;99761.91;4997759;28;20093;-78
2021/08/16 05:29:00;;;;;;;8.02;4.60;;;;;;;18.42;73.45;99768.19;4996055;28;20188;-78
2021/08/16 05:31:25;;;;;;;7.47;5.03;;;;;;;18.57;72.75;99770.09;4997677;28;20046;-78
2021/08/16 05:33:51;;;;;;;8.93;6.38;;;;;;;18.75;72.16;99774.53;4982426;28;20038;-78
2021/08/16 05:36:16;;;;;;;9.45;6.15;;;;;;;18.92;71.92;99767.44;4996105;28;20073;-78
2021/08/16 05:38:43;;;;;;;10.70;5.50;;;;;;;19.06;71.18;99767.56;4994527;28;20050;-78
2021/08/16 05:41:08;;;;;;;7.45;5.38;;;;;;;19.20;71.01;99767.72;4976960;28;20038;-78
2021/08/16 05:43:34;;;;;;;9.90;5.95;;;;;;;19.33;70.37;99769.69;4997438;28;20496;-78
2021/08/16 05:45:59;;;;;;;8.43;4.95;;;;;;;19.44;70.42;99772.66;4994892;28;20069;-78
2021/08/16 05:48:24;;;;;;;13.07;6.13;;;;;;;19.54;69.33;99771.19;4994855;28;20042;-78
2021/08/16 05:50:50;;;;;;;10.45;5.90;;;;;;;19.66;68.76;99775.03;4978702;28;20050;-78
2021/08/16 05:53:15;;;;;;;9.10;4.90;;;;;;;19.85;68.58;99774.88;4996664;28;20058;-78
2021/08/16 05:55:40;;;;;;;14.13;6.07;;;;;;;19.98;68.60;99772.38;4996511;28;20042;-78
2021/08/16 05:58:06;;;;;;;8.25;5.30;;;;;;;20.12;67.97;99761.72;4993449;28;20093;-78
2021/08/16 06:00:31;;;;;;;9.35;5.80;;;;;;;20.27;68.23;99765.31;4996037;28;20045;-78
2021/08/16 06:02:56;;;;;;;9.90;5.72;;;;;;;20.39;67.55;99769.97;4994722;28;20045;-78
2021/08/16 06:05:22;;;;;;;11.52;5.70;;;;;;;20.51;67.09;99768.38;4994934;28;20054;-78
2021/08/16 06:07:47;;;;;;;11.38;5.95;;;;;;;20.68;66.88;99776.31;4980166;28;20053;-79
2021/08/16 06:10:13;;;;;;;10.57;7.13;;;;;;;20.81;66.89;99787.16;4996258;28;20042;-78
2021/08/16 06:12:38;;;;;;;8.18;5.53;;;;;;;20.93;67.54;99785.53;4977946;28;20038;-78
2021/08/16 06:15:04;;;;;;;9.35;5.25;;;;;;;21.05;66.65;99789.31;4998539;28;20030;-78
2021/08/16 06:17:30;;;;;;;8.85;6.22;;;;;;;21.20;66.06;99785.69;4997621;28;20094;-78
2021/08/16 06:19:55;;;;;;;8.00;5.47;;;;;;;21.36;65.82;99791.81;4978774;28;20047;-78
2021/08/16 06:22:21;;;;;;;7.53;4.85;;;;;;;21.55;64.99;99788.00;4969755;28;20117;-78
2021/08/16 06:24:46;;;;;;;13.18;5.28;;;;;;;21.65;64.98;99781.94;4993170;28;20053;-79
2021/08/16 06:27:11;;;;;;;7.80;4.88;;;;;;;21.71;65.26;99779.84;4973211;28;20077;-78
2021/08/16 06:29:37;;;;;;;11.95;5.97;;;;;;;21.76;65.12;99781.25;4985143;28;20042;-79
2021/08/16 06:32:02;;;;;;;9.77;5.90;;;;;;;21.96;64.39;99779.13;4988619;28;20058;-79
2021/08/16 06:34:27;;;;;;;8.05;5.05;;;;;;;22.10;64.27;99773.69;4994233;28;20049;-79
2021/08/16 06:36:56;;;;;;;7.78;5.93;;;;;;;22.20;63.94;99765.91;4977864;28;20038;-78
2021/08/16 06:39:23;;;;;;;7.82;5.63;;;;;;;22.28;63.53;99771.66;4999328;28;20034;-79
2021/08/16 06:41:51;;;;;;;7.82;6.05;;;;;;;22.37;63.76;99767.47;4998848;28;20034;-79
2021/08/16 06:44:18;;;;;;;9.05;5.85;;;;;;;22.48;63.38;99781.06;4995864;28;20045;-78
2021/08/16 06:46:44;;;;;;;8.25;5.57;;;;;;;22.58;62.69;99790.22;4996597;28;20069;-79
2021/08/16 06:49:10;;;;;;;10.52;5.63;;;;;;;22.76;63.07;99797.03;4997939;28;20043;-78
2021/08/16 06:51:35;;;;;;;7.10;4.80;;;;;;;22.88;61.39;99795.34;4998890;28;20047;-79
2021/08/16 06:54:01;;;;;;;8.15;4.57;;;;;;;22.89;61.08;99793.50;5002235;28;20077;-78
2021/08/16 06:56:26;;;;;;;6.78;4.32;;;;;;;22.97;61.83;99797.41;5001874;28;20053;-78
2021/08/16 06:58:51;;;;;;;7.63;5.82;;;;;;;23.00;61.03;99787.41;4982432;28;20045;-79
2021/08/16 07:01:25;;;;;;;7.00;5.80;;;;;;;23.09;59.56;99790.31;4984059;28;20069;-79
2021/08/16 07:03:51;;;;;;;6.10;4.30;;;;;;;23.28;58.75;99799.81;4983727;28;20034;-78
2021/08/16 07:06:17;;;;;;;5.88;3.70;;;;;;;23.53;57.74;99797.09;4998247;28;20123;-79
2021/08/16 07:08:42;;;;;;;9.27;3.97;;;;;;;23.65;55.86;99797.16;5004270;28;20056;-79
2021/08/16 07:11:07;;;;;;;5.75;3.83;;;;;;;23.94;55.78;99803.16;4971090;28;20065;-79
2021/08/16 07:13:33;;;;;;;5.32;3.75;;;;;;;23.87;54.29;99801.88;5004794;28;20042;-79
2021/08/16 07:15:58;;;;;;;5.78;3.03;;;;;;;23.85;54.35;99810.09;4969720;28;20034;-78
2021/08/16 07:18:23;;;;;;;7.40;3.70;;;;;;;23.54;53.27;99811.41;5005328;28;20045;-79
2021/08/16 07:20:49;;;;;;;6.82;3.40;;;;;;;23.63;54.11;99811.63;4998702;28;20049;-79
2021/08/16 07:23:14;;;;;;;7.30;3.22;;;;;;;23.60;53.50;99811.81;5000758;28;20038;-79
2021/08/16 07:25:40;;;;;;;7.43;3.17;;;;;;;23.65;54.60;99807.94;4996350;28;20035;-79
2021/08/16 07:28:05;;;;;;;7.05;3.50;;;;;;;23.70;54.63;99808.47;5001546;28;20053;-79
2021/08/16 07:30:30;;;;;;;6.15;3.65;;;;;;;23.86;54.19;99803.72;4999198;28;20070;-78
2021/08/16 07:32:56;;;;;;;5.10;3.22;;;;;;;24.05;53.48;99809.50;4967461;28;20053;-79
2021/08/16 07:35:21;;;;;;;6.53;3.28;;;;;;;24.17;52.99;99804.16;4970392;28;20166;-79
2021/08/16 07:37:47;;;;;;;4.43;3.03;;;;;;;24.12;51.75;99800.94;4986994;28;20122;-78
2021/08/16 07:40:13;;;;;;;7.32;3.15;;;;;;;24.17;51.84;99788.00;4986675;28;20038;-78
2021/08/16 07:42:40;;;;;;;6.90;3.13;;;;;;;24.10;52.12;99789.41;4984937;28;20035;-79
2021/08/16 07:45:07;;;;;;;6.40;2.78;;;;;;;23.94;52.44;99787.84;4986792;28;20042;-79
2021/08/16 07:47:32;;;;;;;10.13;3.38;;;;;;;23.95;51.93;99804.91;4986382;28;20035;-80
2021/08/16 07:49:57;;;;;;;4.40;2.88;;;;;;;24.00;52.00;99797.34;4984073;28;20513;-80
2021/08/16 07:52:23;;;;;;;10.02;2.65;;;;;;;24.00;52.81;99800.91;4987941;28;20030;-79
2021/08/16 07:54:48;;;;;;;5.57;3.20;;;;;;;24.12;52.43;99812.59;4968369;28;20493;-80
2021/08/16 07:57:13;;;;;;;5.65;3.15;;;;;;;24.14;51.60;99807.94;4987284;28;20045;-80
2021/08/16 07:59:39;;;;;;;5.22;2.90;;;;;;;24.06;51.85;99813.91;4984968;28;20126;-80
2021/08/16 08:02:04;;;;;;;5.05;2.90;;;;;;;24.05;51.85;99817.59;4985405;28;20122;-80
2021/08/16 08:04:29;;;;;;;9.32;3.70;;;;;;;23.81;51.93;99804.06;4964262;28;20493;-79
2021/08/16 08:06:55;;;;;;;5.57;2.67;;;;;;;23.72;52.49;99811.97;4948028;28;20050;-80
2021/08/16 08:09:21;;;;;;;7.00;3.17;;;;;;;23.71;52.92;99810.19;4968683;28;20475;-80
2021/08/16 08:11:46;;;;;;;7.72;3.00;;;;;;;23.72;52.34;99814.66;4982508;28;20046;-80
2021/08/16 08:14:12;;;;;;;7.05;2.95;;;;;;;23.78;51.82;99817.75;4974946;28;20034;-79
2021/08/16 08:16:37;;;;;;;5.90;3.53;;;;;;;23.90;52.68;99812.47;4979932;28;20038;-80
2021/08/16 08:19:02;;;;;;;6.53;2.80;;;;;;;24.01;51.49;99826.00;4977779;28;20044;-79
2021/08/16 08:21:27;;;;;;;5.22;2.83;;;;;;;24.04;52.19;99815.84;4978879;28;20130;-80
2021/08/16 08:23:53;;;;;;;5.93;2.83;;;;;;;24.11;51.80;99823.50;4964228;28;20073;-80
2021/08/16 08:26:18;;;;;;;5.57;2.88;;;;;;;24.13;50.88;99841.28;4978020;28;20034;-80
2021/08/16 08:28:44;;;;;;;9.07;3.38;;;;;;;24.09;51.30;99820.91;4986248;28;20441;-80
2021/08/16 08:31:09;;;;;;;4.90;2.90;;;;;;;24.23;51.65;99814.50;4986310;28;20404;-80
2021/08/16 08:33:37;;;;;;;6.22;3.05;;;;;;;24.36;51.12;99815.28;4983522;28;20046;-79
2021/08/16 08:36:02;;;;;;;9.70;3.13;;;;;;;24.33;51.18;99812.81;4986531;28;20050;-80
2021/08/16 08:38:28;;;;;;;7.00;3.15;;;;;;;24.41;50.23;99818.50;4983463;28;20038;-80
2021/08/16 08:40:58;;;;;;;5.80;3.28;;;;;;;24.25;51.09;99816.09;4985132;28;20057;-80
2021/08/16 08:43:23;;;;;;;9.93;4.53;;;;;;;24.43;50.72;99813.88;4984077;28;20069;-80
2021/08/16 08:45:50;;;;;;;7.72;3.72;;;;;;;24.64;51.05;99818.66;4985771;28;20486;-80
2021/08/16 08:48:18;;;;;;;7.97;3.90;;;;;;;24.67;49.76;99824.66;4986036;28;20136;-80
2021/08/16 08:50:43;;;;;;;8.18;3.53;;;;;;;24.62;49.61;99826.00;4984012;28;20051;-80
2021/08/16 08:53:08;;;;;;;9.77;3.95;;;;;;;24.54;49.91;99825.72;4985735;28;20048;-80
2021/08/16 08:55:34;;;;;;;10.40;3.65;;;;;;;24.65;48.63;99825.75;4985612;28;20077;-80
2021/08/16 08:58:01;;;;;;;6.28;4.05;;;;;;;24.74;48.57;99827.75;4983614;28;20064;-80
2021/08/16 09:00:26;;;;;;;8.70;3.80;;;;;;;24.80;48.09;99832.69;4985343;28;20034;-80
2021/08/16 09:02:56;;;;;;;7.45;3.50;;;;;;;24.82;45.72;99833.44;4985259;28;20133;-80
2021/08/16 09:05:21;;;;;;;10.05;3.95;;;;;;;24.89;46.16;99839.25;4962492;28;20074;-80
2021/08/16 09:07:47;;;;;;;5.88;3.47;;;;;;;24.90;46.35;99832.84;4985468;28;20092;-80
2021/08/16 09:10:15;;;;;;;6.22;3.20;;;;;;;24.90;44.67;99841.78;4986010;28;20062;-80
2021/08/16 09:12:42;;;;;;;6.80;3.53;;;;;;;24.91;45.36;99840.81;4978985;28;20043;-80
2021/08/16 09:15:19;;;;;;;5.10;3.10;;;;;;;24.99;43.85;99845.63;4984402;28;20081;-80
2021/08/16 09:17:45;;;;;;;8.20;3.10;;;;;;;24.80;44.06;99845.31;4980874;28;20404;-80
2021/08/16 09:20:29;;;;;;;7.80;3.42;;;;;;;24.88;45.27;99841.03;4984103;28;20039;-80
2021/08/16 09:23:01;;;;;;;4.95;3.17;;;;;;;24.92;44.68;99842.53;4981863;28;20053;-80
2021/08/16 09:25:29;;;;;;;;;;;;;;;25.04;44.95;99838.03;4989575;28;20046;-80
2021/08/16 09:27:54;;;;;;;7.70;2.70;;;;;;;25.17;44.33;99839.81;4986513;28;19964;-80
2021/08/16 09:30:30;;;;;;;6.25;3.38;;;;;;;25.43;42.92;99832.38;4988900;28;20034;-80
2021/08/16 09:32:55;;;;;;;7.38;3.58;;;;;;;25.62;42.12;99834.47;4982317;28;20154;-80
2021/08/16 09:35:21;;;;;;;8.23;3.83;;;;;;;25.66;41.26;99822.44;4968120;28;20076;-80
2021/08/16 09:37:56;;;;;;;7.32;3.45;;;;;;;25.79;41.64;99817.75;4981514;28;20035;-80
2021/08/16 09:40:21;;;;;;;12.75;4.15;;;;;;;26.20;41.16;99810.84;4965685;28;20117;-80
2021/08/16 09:42:49;;;;;;;12.15;3.58;;;;;;;26.01;41.66;99820.44;4968710;28;20112;-80
2021/08/16 09:45:28;;;;;;;8.15;3.42;;;;;;;25.79;41.86;99825.88;4952423;28;20066;-80
2021/08/16 09:47:56;;;;;;;9.07;4.18;;;;;;;25.71;41.34;99818.38;4961798;28;20105;-80
2021/08/16 09:50:22;;;;;;;7.35;3.60;;;;;;;25.92;41.13;99823.06;4991457;28;20045;-80
2021/08/16 09:52:48;;;;;;;7.10;3.72;;;;;;;26.28;40.63;99815.59;4983313;23;20051;-80
2021/08/16 09:55:13;;;;;;;9.20;3.35;;;;;;;26.32;40.75;99826.03;4980758;28;20033;-80
2021/08/16 09:57:39;;;;;;;6.45;3.38;;;;;;;25.97;39.92;99805.47;4972266;28;20031;-81
2021/08/16 10:00:05;;;;;;;8.90;3.75;;;;;;;25.93;40.59;99803.16;4974582;28;20066;-80
2021/08/16 10:02:31;;;;;;;9.52;4.22;;;;;;;25.74;40.86;99793.78;4972020;28;20129;-79
2021/08/16 10:04:58;;;;;;;12.63;3.85;;;;;;;25.83;40.48;99794.03;4977615;28;20046;-79
2021/08/16 10:07:28;;;;;;;10.57;4.55;;;;;;;26.22;40.03;99792.63;4980586;28;20058;-79
2021/08/16 10:09:56;;;;;;;7.47;3.72;;;;;;;26.43;40.18;99782.72;4979245;28;20101;-79
2021/08/16 10:12:21;;;;;;;7.72;3.95;;;;;;;26.47;39.63;99774.34;4980253;28;20042;-79
2021/08/16 10:14:50;;;;;;;7.20;4.07;;;;;;;26.51;40.00;99764.97;4978782;28;20035;-79
2021/08/16 10:17:18;;;;;;;8.73;3.35;;;;;;;26.61;40.61;99772.22;4976455;28;20380;-79
2021/08/16 10:19:45;;;;;;;7.53;3.88;;;;;;;26.66;40.00;99763.72;4971122;28;20043;-79
2021/08/16 10:22:10;;;;;;;7.70;3.75;;;;;;;26.68;39.12;99761.72;4977109;28;20034;-79
2021/08/16 10:24:35;;;;;;;8.48;3.25;;;;;;;26.56;37.40;99771.75;4975289;28;20041;-79
2021/08/16 10:27:04;;;;;;;10.48;3.50;;;;;;;26.51;37.91;99773.94;4976884;28;20061;-80
2021/08/16 10:29:31;;;;;;;6.22;3.50;;;;;;;26.31;38.85;99764.81;4983640;28;20067;-80
2021/08/16 10:31:59;;;;;;;9.15;3.25;;;;;;;26.46;38.66;99765.34;4984249;28;20046;-80
2021/08/16 10:34:33;;;;;;;12.43;3.63;;;;;;;26.35;37.81;99757.28;4983977;28;20039;-79
2021/08/16 10:37:03;;;;;;;6.65;3.08;;;;;;;26.24;37.31;99775.28;4991152;28;20034;-80
2021/08/16 10:39:44;;;;;;;6.10;3.25;;;;;;;26.28;37.69;99759.69;5003908;28;20042;-79
2021/08/16 10:42:13;;;;;;;9.17;3.47;;;;;;;26.26;37.98;99756.22;4984612;28;20035;-79
2021/08/16 10:44:43;;;;;;;11.82;4.05;;;;;;;26.27;37.92;99759.78;4992072;28;20046;-79
2021/08/16 10:47:11;;;;;;;10.20;3.83;;;;;;;26.27;37.77;99763.34;4992469;28;20030;-79
2021/08/16 10:49:39;;;;;;;10.43;3.53;;;;;;;26.06;37.58;99748.91;4986467;28;20325;-79
2021/08/16 10:52:17;;;;;;;7.30;3.35;;;;;;;26.02;38.32;99749.19;4986211;28;20042;-80
2021/08/16 10:54:42;;;;;;;10.10;3.40;;;;;;;25.84;38.43;99763.34;4977061;28;20075;-79
2021/08/16 10:57:10;;;;;;;10.30;3.03;;;;;;;26.04;38.17;99746.34;4982052;28;20065;-79
2021/08/16 10:59:35;;;;;;;7.97;3.28;;;;;;;26.26;37.07;99739.16;4983783;28;20045;-80
2021/08/16 11:02:01;;;;;;;10.05;3.05;;;;;;;26.41;37.79;99751.38;4979065;28;20070;-79
2021/08/16 11:04:34;;;;;;;6.38;2.95;;;;;;;26.17;38.81;99751.59;4980153;28;20070;-79
2021/08/16 11:07:04;;;;;;;9.88;3.00;;;;;;;25.95;38.01;99747.13;4978134;28;20047;-79
2021/08/16 11:09:32;;;;;;;7.85;3.42;;;;;;;25.92;38.82;99750.94;4984699;28;20043;-79
2021/08/16 11:12:02;;;;;;;7.55;3.60;;;;;;;26.00;38.63;99761.97;4961005;28;20046;-79
2021/08/16 11:14:29;;;;;;;6.00;2.67;;;;;;;25.97;38.44;99753.25;4976701;28;20034;-79
2021/08/16 11:16:55;;;;;;;11.75;3.33;;;;;;;26.09;38.79;99738.69;4977727;28;20050;-79
2021/08/16 11:19:22;;;;;;;15.95;3.33;;;;;;;26.20;38.29;99762.16;4977651;28;20043;-79
2021/08/16 11:22:01;;;;;;;9.25;3.40;;;;;;;26.37;37.38;99741.81;4977972;28;20066;-79
2021/08/16 11:24:37;;;;;;;10.82;3.45;;;;;;;26.49;36.92;99740.78;4980506;28;20061;-79
2021/08/16 11:27:08;;;;;;;7.80;3.10;;;;;;;26.48;36.93;99732.78;4979291;28;20523;-79